sensor_id;sensor_type;location;lat;lon;timestamp;P1;durP1;ratioP1;P2;durP2;ratioP2
18612;SDS011;9436;52.152;21.032;2023-02-17T00:02:04;59.70;;;38.63;;
18612;SDS011;9436;52.152;21.032;2023-02-17T00:04:32;59.13;;;38.30;;
18612;SDS011;9436;52.152;21.032;2023-02-17T00:06:59;60.03;;;37.73;;
18612;SDS011;9436;52.152;21.032;2023-02-17T00:09:28;60.47;;;38.57;;
18612;SDS011;9436;52.152;21.032;2023-02-17T00:11:55;56.30;;;37.60;;
18612;SDS011;9436;52.152;21.032;2023-02-17T00:14:22;59.40;;;39.00;;
18612;SDS011;9436;52.152;21.032;2023-02-17T00:16:49;58.87;;;38.60;;
18612;SDS011;9436;52.152;21.032;2023-02-17T00:19:16;59.20;;;38.00;;
18612;SDS011;9436;52.152;21.032;2023-02-17T00:21:49;59.30;;;37.97;;
18612;SDS011;9436;52.152;21.032;2023-02-17T00:24:16;60.07;;;39.70;;
18612;SDS011;9436;52.152;21.032;2023-02-17T00:26:45;61.33;;;39.43;;
18612;SDS011;9436;52.152;21.032;2023-02-17T00:29:12;61.00;;;38.63;;
18612;SDS011;9436;52.152;21.032;2023-02-17T00:31:39;57.10;;;38.80;;
18612;SDS011;9436;52.152;21.032;2023-02-17T00:34:06;60.10;;;38.40;;
18612;SDS011;9436;52.152;21.032;2023-02-17T00:36:33;57.10;;;37.30;;
18612;SDS011;9436;52.152;21.032;2023-02-17T00:39:00;61.07;;;40.20;;
18612;SDS011;9436;52.152;21.032;2023-02-17T00:41:28;60.50;;;39.33;;
18612;SDS011;9436;52.152;21.032;2023-02-17T00:43:57;55.23;;;36.20;;
18612;SDS011;9436;52.152;21.032;2023-02-17T00:46:24;54.10;;;36.57;;
18612;SDS011;9436;52.152;21.032;2023-02-17T00:48:52;60.47;;;38.57;;
18612;SDS011;9436;52.152;21.032;2023-02-17T00:51:19;56.77;;;38.63;;
18612;SDS011;9436;52.152;21.032;2023-02-17T00:53:47;58.37;;;38.43;;
18612;SDS011;9436;52.152;21.032;2023-02-17T00:56:14;55.77;;;37.23;;
18612;SDS011;9436;52.152;21.032;2023-02-17T00:58:41;60.47;;;38.73;;
18612;SDS011;9436;52.152;21.032;2023-02-17T01:01:11;57.43;;;36.60;;
18612;SDS011;9436;52.152;21.032;2023-02-17T01:03:39;58.53;;;38.50;;
18612;SDS011;9436;52.152;21.032;2023-02-17T01:06:07;56.70;;;37.10;;
18612;SDS011;9436;52.152;21.032;2023-02-17T01:08:35;60.10;;;39.50;;
18612;SDS011;9436;52.152;21.032;2023-02-17T01:11:02;58.47;;;38.03;;
18612;SDS011;9436;52.152;21.032;2023-02-17T01:13:29;56.47;;;38.60;;
18612;SDS011;9436;52.152;21.032;2023-02-17T01:15:56;57.70;;;38.47;;
18612;SDS011;9436;52.152;21.032;2023-02-17T01:18:25;57.23;;;37.77;;
18612;SDS011;9436;52.152;21.032;2023-02-17T01:20:52;59.07;;;39.93;;
18612;SDS011;9436;52.152;21.032;2023-02-17T01:23:19;58.33;;;38.67;;
18612;SDS011;9436;52.152;21.032;2023-02-17T01:25:46;58.63;;;38.73;;
18612;SDS011;9436;52.152;21.032;2023-02-17T01:28:15;58.23;;;38.63;;
18612;SDS011;9436;52.152;21.032;2023-02-17T01:30:44;57.40;;;37.07;;
18612;SDS011;9436;52.152;21.032;2023-02-17T01:33:12;56.20;;;38.13;;
18612;SDS011;9436;52.152;21.032;2023-02-17T01:35:40;56.93;;;38.63;;
18612;SDS011;9436;52.152;21.032;2023-02-17T01:38:07;59.10;;;38.73;;
18612;SDS011;9436;52.152;21.032;2023-02-17T01:40:35;55.30;;;38.03;;
18612;SDS011;9436;52.152;21.032;2023-02-17T01:43:02;56.63;;;37.40;;
18612;SDS011;9436;52.152;21.032;2023-02-17T01:48:15;61.33;;;38.60;;
18612;SDS011;9436;52.152;21.032;2023-02-17T01:50:46;61.50;;;38.80;;
18612;SDS011;9436;52.152;21.032;2023-02-17T01:53:16;55.13;;;37.27;;
18612;SDS011;9436;52.152;21.032;2023-02-17T01:55:46;57.73;;;37.13;;
18612;SDS011;9436;52.152;21.032;2023-02-17T01:58:14;58.20;;;38.03;;
18612;SDS011;9436;52.152;21.032;2023-02-17T02:00:44;56.27;;;37.43;;
18612;SDS011;9436;52.152;21.032;2023-02-17T02:03:13;56.70;;;37.63;;
18612;SDS011;9436;52.152;21.032;2023-02-17T02:05:40;56.93;;;37.87;;
18612;SDS011;9436;52.152;21.032;2023-02-17T02:08:09;60.63;;;37.67;;
18612;SDS011;9436;52.152;21.032;2023-02-17T02:10:37;56.50;;;37.93;;
18612;SDS011;9436;52.152;21.032;2023-02-17T02:13:05;54.30;;;37.33;;
18612;SDS011;9436;52.152;21.032;2023-02-17T02:15:34;56.13;;;37.40;;
18612;SDS011;9436;52.152;21.032;2023-02-17T02:18:10;57.23;;;39.07;;
18612;SDS011;9436;52.152;21.032;2023-02-17T02:27:24;55.30;;;36.77;;
18612;SDS011;9436;52.152;21.032;2023-02-17T02:30:18;53.40;;;36.30;;
18612;SDS011;9436;52.152;21.032;2023-02-17T02:33:21;53.37;;;36.93;;
18612;SDS011;9436;52.152;21.032;2023-02-17T02:35:55;54.33;;;36.57;;
18612;SDS011;9436;52.152;21.032;2023-02-17T02:38:27;54.83;;;36.77;;
18612;SDS011;9436;52.152;21.032;2023-02-17T02:41:03;53.47;;;36.33;;
18612;SDS011;9436;52.152;21.032;2023-02-17T02:43:35;56.27;;;37.07;;
18612;SDS011;9436;52.152;21.032;2023-02-17T02:46:03;52.47;;;35.63;;
18612;SDS011;9436;52.152;21.032;2023-02-17T02:48:32;55.60;;;37.17;;
18612;SDS011;9436;52.152;21.032;2023-02-17T02:54:12;54.63;;;36.57;;
18612;SDS011;9436;52.152;21.032;2023-02-17T02:59:47;57.50;;;36.67;;
18612;SDS011;9436;52.152;21.032;2023-02-17T03:02:23;55.70;;;36.93;;
18612;SDS011;9436;52.152;21.032;2023-02-17T03:04:56;52.73;;;36.03;;
18612;SDS011;9436;52.152;21.032;2023-02-17T03:07:31;54.57;;;35.93;;
18612;SDS011;9436;52.152;21.032;2023-02-17T03:10:01;54.27;;;37.77;;
18612;SDS011;9436;52.152;21.032;2023-02-17T03:12:29;52.80;;;35.83;;
18612;SDS011;9436;52.152;21.032;2023-02-17T03:14:57;58.17;;;36.77;;
18612;SDS011;9436;52.152;21.032;2023-02-17T03:17:29;53.83;;;36.27;;
18612;SDS011;9436;52.152;21.032;2023-02-17T03:19:58;55.67;;;36.10;;
18612;SDS011;9436;52.152;21.032;2023-02-17T03:22:28;54.20;;;36.33;;
18612;SDS011;9436;52.152;21.032;2023-02-17T03:24:59;53.93;;;36.13;;
18612;SDS011;9436;52.152;21.032;2023-02-17T03:27:26;55.87;;;36.23;;
18612;SDS011;9436;52.152;21.032;2023-02-17T03:29:53;56.53;;;37.27;;
18612;SDS011;9436;52.152;21.032;2023-02-17T03:32:20;55.90;;;36.13;;
18612;SDS011;9436;52.152;21.032;2023-02-17T03:34:47;53.93;;;35.70;;
18612;SDS011;9436;52.152;21.032;2023-02-17T03:37:16;54.43;;;36.47;;
18612;SDS011;9436;52.152;21.032;2023-02-17T03:39:43;56.80;;;36.87;;
18612;SDS011;9436;52.152;21.032;2023-02-17T03:42:10;53.30;;;36.17;;
18612;SDS011;9436;52.152;21.032;2023-02-17T03:44:37;54.40;;;35.93;;
18612;SDS011;9436;52.152;21.032;2023-02-17T03:47:04;50.67;;;34.30;;
18612;SDS011;9436;52.152;21.032;2023-02-17T03:49:32;53.10;;;36.37;;
18612;SDS011;9436;52.152;21.032;2023-02-17T03:51:59;48.43;;;34.77;;
18612;SDS011;9436;52.152;21.032;2023-02-17T03:54:28;54.47;;;36.17;;
18612;SDS011;9436;52.152;21.032;2023-02-17T03:56:55;48.93;;;33.93;;
18612;SDS011;9436;52.152;21.032;2023-02-17T03:59:23;49.60;;;34.17;;
18612;SDS011;9436;52.152;21.032;2023-02-17T04:01:50;54.40;;;35.37;;
18612;SDS011;9436;52.152;21.032;2023-02-17T04:04:17;51.93;;;36.03;;
18612;SDS011;9436;52.152;21.032;2023-02-17T04:06:44;52.50;;;35.50;;
18612;SDS011;9436;52.152;21.032;2023-02-17T04:09:11;54.13;;;36.77;;
18612;SDS011;9436;52.152;21.032;2023-02-17T04:11:40;55.23;;;36.00;;
18612;SDS011;9436;52.152;21.032;2023-02-17T04:14:07;54.87;;;35.73;;
18612;SDS011;9436;52.152;21.032;2023-02-17T04:16:35;54.73;;;36.47;;
18612;SDS011;9436;52.152;21.032;2023-02-17T04:19:03;53.07;;;35.57;;
18612;SDS011;9436;52.152;21.032;2023-02-17T04:21:30;50.73;;;35.87;;
18612;SDS011;9436;52.152;21.032;2023-02-17T04:23:58;54.77;;;35.80;;
18612;SDS011;9436;52.152;21.032;2023-02-17T04:26:26;54.27;;;36.10;;
18612;SDS011;9436;52.152;21.032;2023-02-17T04:28:55;54.13;;;37.00;;
18612;SDS011;9436;52.152;21.032;2023-02-17T04:31:22;55.67;;;36.33;;
18612;SDS011;9436;52.152;21.032;2023-02-17T04:33:50;54.37;;;36.53;;
18612;SDS011;9436;52.152;21.032;2023-02-17T04:36:17;56.17;;;37.30;;
18612;SDS011;9436;52.152;21.032;2023-02-17T04:38:44;51.03;;;36.27;;
18612;SDS011;9436;52.152;21.032;2023-02-17T04:41:11;54.97;;;36.70;;
18612;SDS011;9436;52.152;21.032;2023-02-17T04:43:38;52.30;;;36.03;;
18612;SDS011;9436;52.152;21.032;2023-02-17T04:46:06;53.73;;;35.93;;
18612;SDS011;9436;52.152;21.032;2023-02-17T04:48:35;57.50;;;37.30;;
18612;SDS011;9436;52.152;21.032;2023-02-17T04:51:03;53.80;;;36.00;;
18612;SDS011;9436;52.152;21.032;2023-02-17T04:53:31;55.00;;;37.47;;
18612;SDS011;9436;52.152;21.032;2023-02-17T04:55:58;58.03;;;37.70;;
18612;SDS011;9436;52.152;21.032;2023-02-17T04:58:25;54.17;;;37.83;;
18612;SDS011;9436;52.152;21.032;2023-02-17T05:00:52;54.97;;;37.67;;
18612;SDS011;9436;52.152;21.032;2023-02-17T05:03:21;57.50;;;37.57;;
18612;SDS011;9436;52.152;21.032;2023-02-17T05:05:48;56.13;;;37.97;;
18612;SDS011;9436;52.152;21.032;2023-02-17T05:08:15;58.33;;;37.80;;
18612;SDS011;9436;52.152;21.032;2023-02-17T05:10:42;55.07;;;38.67;;
18612;SDS011;9436;52.152;21.032;2023-02-17T05:13:09;55.67;;;37.13;;
18612;SDS011;9436;52.152;21.032;2023-02-17T05:15:36;53.37;;;36.33;;
18612;SDS011;9436;52.152;21.032;2023-02-17T05:18:03;54.50;;;36.93;;
18612;SDS011;9436;52.152;21.032;2023-02-17T05:20:32;54.27;;;36.13;;
18612;SDS011;9436;52.152;21.032;2023-02-17T05:22:59;54.10;;;37.07;;
18612;SDS011;9436;52.152;21.032;2023-02-17T05:25:26;61.07;;;38.03;;
18612;SDS011;9436;52.152;21.032;2023-02-17T05:27:53;55.27;;;37.07;;
18612;SDS011;9436;52.152;21.032;2023-02-17T05:30:20;57.33;;;38.07;;
18612;SDS011;9436;52.152;21.032;2023-02-17T05:32:47;58.10;;;38.73;;
18612;SDS011;9436;52.152;21.032;2023-02-17T05:35:14;55.33;;;37.13;;
18612;SDS011;9436;52.152;21.032;2023-02-17T05:37:43;51.07;;;35.97;;
18612;SDS011;9436;52.152;21.032;2023-02-17T05:40:10;52.83;;;37.83;;
18612;SDS011;9436;52.152;21.032;2023-02-17T05:42:37;52.37;;;36.93;;
18612;SDS011;9436;52.152;21.032;2023-02-17T05:45:04;54.63;;;37.37;;
18612;SDS011;9436;52.152;21.032;2023-02-17T05:47:32;55.27;;;36.73;;
18612;SDS011;9436;52.152;21.032;2023-02-17T05:49:59;59.43;;;36.67;;
18612;SDS011;9436;52.152;21.032;2023-02-17T05:52:26;54.03;;;36.80;;
18612;SDS011;9436;52.152;21.032;2023-02-17T05:54:55;55.77;;;36.30;;
18612;SDS011;9436;52.152;21.032;2023-02-17T05:57:22;52.93;;;36.80;;
18612;SDS011;9436;52.152;21.032;2023-02-17T05:59:49;53.83;;;36.13;;
18612;SDS011;9436;52.152;21.032;2023-02-17T06:02:16;58.47;;;38.03;;
18612;SDS011;9436;52.152;21.032;2023-02-17T06:04:43;59.60;;;37.57;;
18612;SDS011;9436;52.152;21.032;2023-02-17T06:07:10;54.43;;;36.37;;
18612;SDS011;9436;52.152;21.032;2023-02-17T06:09:37;57.33;;;36.67;;
18612;SDS011;9436;52.152;21.032;2023-02-17T06:12:05;54.17;;;35.37;;
18612;SDS011;9436;52.152;21.032;2023-02-17T06:14:32;51.57;;;35.73;;
18612;SDS011;9436;52.152;21.032;2023-02-17T06:17:00;54.87;;;35.77;;
18612;SDS011;9436;52.152;21.032;2023-02-17T06:19:28;54.17;;;37.17;;
18612;SDS011;9436;52.152;21.032;2023-02-17T06:21:55;55.37;;;37.17;;
18612;SDS011;9436;52.152;21.032;2023-02-17T06:24:22;56.97;;;36.77;;
18612;SDS011;9436;52.152;21.032;2023-02-17T06:26:50;59.97;;;38.43;;
18612;SDS011;9436;52.152;21.032;2023-02-17T06:29:18;54.37;;;36.43;;
18612;SDS011;9436;52.152;21.032;2023-02-17T06:31:45;55.40;;;37.53;;
18612;SDS011;9436;52.152;21.032;2023-02-17T06:34:12;51.90;;;36.23;;
18612;SDS011;9436;52.152;21.032;2023-02-17T06:36:39;52.83;;;35.10;;
18612;SDS011;9436;52.152;21.032;2023-02-17T06:39:06;52.07;;;35.03;;
18612;SDS011;9436;52.152;21.032;2023-02-17T06:41:33;51.27;;;34.43;;
18612;SDS011;9436;52.152;21.032;2023-02-17T06:44:01;47.67;;;32.83;;
18612;SDS011;9436;52.152;21.032;2023-02-17T06:46:29;55.10;;;36.10;;
18612;SDS011;9436;52.152;21.032;2023-02-17T06:48:56;51.93;;;35.03;;
18612;SDS011;9436;52.152;21.032;2023-02-17T06:51:24;55.47;;;36.73;;
18612;SDS011;9436;52.152;21.032;2023-02-17T06:53:51;52.50;;;35.77;;
18612;SDS011;9436;52.152;21.032;2023-02-17T06:56:18;50.23;;;32.37;;
18612;SDS011;9436;52.152;21.032;2023-02-17T06:58:45;53.33;;;34.37;;
18612;SDS011;9436;52.152;21.032;2023-02-17T07:01:14;48.57;;;33.30;;
18612;SDS011;9436;52.152;21.032;2023-02-17T07:03:44;48.83;;;33.87;;
18612;SDS011;9436;52.152;21.032;2023-02-17T07:06:11;48.90;;;33.17;;
18612;SDS011;9436;52.152;21.032;2023-02-17T07:08:38;50.10;;;34.17;;
18612;SDS011;9436;52.152;21.032;2023-02-17T07:11:06;52.67;;;34.77;;
18612;SDS011;9436;52.152;21.032;2023-02-17T07:13:34;49.63;;;34.23;;
18612;SDS011;9436;52.152;21.032;2023-02-17T07:16:01;49.57;;;35.47;;
18612;SDS011;9436;52.152;21.032;2023-02-17T07:18:29;50.60;;;35.30;;
18612;SDS011;9436;52.152;21.032;2023-02-17T07:20:58;48.13;;;33.53;;
18612;SDS011;9436;52.152;21.032;2023-02-17T07:23:25;48.13;;;33.27;;
18612;SDS011;9436;52.152;21.032;2023-02-17T07:25:52;48.37;;;34.43;;
18612;SDS011;9436;52.152;21.032;2023-02-17T07:28:19;51.67;;;35.73;;
18612;SDS011;9436;52.152;21.032;2023-02-17T07:30:46;51.93;;;35.00;;
18612;SDS011;9436;52.152;21.032;2023-02-17T07:33:13;48.10;;;32.67;;
18612;SDS011;9436;52.152;21.032;2023-02-17T07:35:40;47.63;;;33.83;;
18612;SDS011;9436;52.152;21.032;2023-02-17T07:38:10;45.20;;;29.83;;
18612;SDS011;9436;52.152;21.032;2023-02-17T07:40:38;46.63;;;31.50;;
18612;SDS011;9436;52.152;21.032;2023-02-17T07:43:05;49.33;;;33.27;;
18612;SDS011;9436;52.152;21.032;2023-02-17T07:45:32;46.93;;;32.93;;
18612;SDS011;9436;52.152;21.032;2023-02-17T07:47:59;45.43;;;31.50;;
18612;SDS011;9436;52.152;21.032;2023-02-17T07:50:26;48.07;;;32.20;;
18612;SDS011;9436;52.152;21.032;2023-02-17T07:52:53;46.30;;;32.70;;
18612;SDS011;9436;52.152;21.032;2023-02-17T07:55:22;45.80;;;32.00;;
18612;SDS011;9436;52.152;21.032;2023-02-17T07:57:49;45.43;;;32.10;;
18612;SDS011;9436;52.152;21.032;2023-02-17T08:00:16;46.83;;;33.50;;
18612;SDS011;9436;52.152;21.032;2023-02-17T08:02:44;46.23;;;32.50;;
18612;SDS011;9436;52.152;21.032;2023-02-17T08:05:12;48.50;;;33.90;;
18612;SDS011;9436;52.152;21.032;2023-02-17T08:07:39;44.80;;;32.10;;
18612;SDS011;9436;52.152;21.032;2023-02-17T08:10:06;48.37;;;33.13;;
18612;SDS011;9436;52.152;21.032;2023-02-17T08:12:55;50.20;;;33.10;;
18612;SDS011;9436;52.152;21.032;2023-02-17T08:15:40;45.83;;;31.53;;
18612;SDS011;9436;52.152;21.032;2023-02-17T08:18:07;44.33;;;31.90;;
18612;SDS011;9436;52.152;21.032;2023-02-17T08:20:34;46.07;;;32.17;;
18612;SDS011;9436;52.152;21.032;2023-02-17T08:23:01;43.80;;;32.30;;
18612;SDS011;9436;52.152;21.032;2023-02-17T08:25:30;47.83;;;33.63;;
18612;SDS011;9436;52.152;21.032;2023-02-17T08:27:59;45.87;;;30.80;;
18612;SDS011;9436;52.152;21.032;2023-02-17T08:30:26;39.70;;;27.20;;
18612;SDS011;9436;52.152;21.032;2023-02-17T08:32:53;40.33;;;29.43;;
18612;SDS011;9436;52.152;21.032;2023-02-17T08:35:20;43.27;;;31.13;;
18612;SDS011;9436;52.152;21.032;2023-02-17T08:37:47;46.77;;;32.20;;
18612;SDS011;9436;52.152;21.032;2023-02-17T08:40:15;45.03;;;31.53;;
18612;SDS011;9436;52.152;21.032;2023-02-17T08:42:42;47.57;;;32.97;;
18612;SDS011;9436;52.152;21.032;2023-02-17T08:45:12;43.77;;;31.50;;
18612;SDS011;9436;52.152;21.032;2023-02-17T08:47:40;48.30;;;33.03;;
18612;SDS011;9436;52.152;21.032;2023-02-17T08:50:07;44.17;;;31.63;;
18612;SDS011;9436;52.152;21.032;2023-02-17T08:52:35;46.90;;;31.47;;
18612;SDS011;9436;52.152;21.032;2023-02-17T08:55:03;44.37;;;32.03;;
18612;SDS011;9436;52.152;21.032;2023-02-17T08:57:30;44.73;;;30.97;;
18612;SDS011;9436;52.152;21.032;2023-02-17T08:59:58;43.87;;;31.47;;
18612;SDS011;9436;52.152;21.032;2023-02-17T09:02:26;45.03;;;31.33;;
18612;SDS011;9436;52.152;21.032;2023-02-17T09:04:54;42.03;;;30.63;;
18612;SDS011;9436;52.152;21.032;2023-02-17T09:07:21;44.37;;;31.00;;
18612;SDS011;9436;52.152;21.032;2023-02-17T09:09:48;44.50;;;29.63;;
18612;SDS011;9436;52.152;21.032;2023-02-17T09:12:15;46.83;;;29.43;;
18612;SDS011;9436;52.152;21.032;2023-02-17T09:14:42;42.93;;;29.90;;
18612;SDS011;9436;52.152;21.032;2023-02-17T09:17:09;41.80;;;29.23;;
18612;SDS011;9436;52.152;21.032;2023-02-17T09:19:38;44.00;;;30.43;;
18612;SDS011;9436;52.152;21.032;2023-02-17T09:22:05;42.47;;;30.50;;
18612;SDS011;9436;52.152;21.032;2023-02-17T09:24:32;45.67;;;31.17;;
18612;SDS011;9436;52.152;21.032;2023-02-17T09:27:02;42.03;;;29.40;;
18612;SDS011;9436;52.152;21.032;2023-02-17T09:29:29;44.83;;;30.93;;
18612;SDS011;9436;52.152;21.032;2023-02-17T09:31:56;43.60;;;31.30;;
18612;SDS011;9436;52.152;21.032;2023-02-17T09:34:23;41.93;;;29.27;;
18612;SDS011;9436;52.152;21.032;2023-02-17T09:36:52;42.60;;;29.27;;
18612;SDS011;9436;52.152;21.032;2023-02-17T09:39:19;40.07;;;28.87;;
18612;SDS011;9436;52.152;21.032;2023-02-17T09:41:48;41.60;;;29.23;;
18612;SDS011;9436;52.152;21.032;2023-02-17T09:44:20;43.63;;;29.17;;
18612;SDS011;9436;52.152;21.032;2023-02-17T09:46:50;40.80;;;29.87;;
18612;SDS011;9436;52.152;21.032;2023-02-17T09:49:23;40.33;;;30.33;;
18612;SDS011;9436;52.152;21.032;2023-02-17T09:51:57;40.10;;;28.23;;
18612;SDS011;9436;52.152;21.032;2023-02-17T09:54:29;39.50;;;28.00;;
18612;SDS011;9436;52.152;21.032;2023-02-17T09:57:00;42.30;;;29.30;;
18612;SDS011;9436;52.152;21.032;2023-02-17T09:59:31;40.80;;;28.67;;
18612;SDS011;9436;52.152;21.032;2023-02-17T10:02:05;42.13;;;28.80;;
18612;SDS011;9436;52.152;21.032;2023-02-17T10:04:38;41.63;;;29.40;;
18612;SDS011;9436;52.152;21.032;2023-02-17T10:07:12;42.73;;;29.40;;
18612;SDS011;9436;52.152;21.032;2023-02-17T10:09:45;39.47;;;29.03;;
18612;SDS011;9436;52.152;21.032;2023-02-17T10:12:16;41.20;;;29.03;;
18612;SDS011;9436;52.152;21.032;2023-02-17T10:14:47;43.20;;;29.90;;
18612;SDS011;9436;52.152;21.032;2023-02-17T10:17:19;41.53;;;28.33;;
18612;SDS011;9436;52.152;21.032;2023-02-17T10:19:51;43.23;;;29.40;;
18612;SDS011;9436;52.152;21.032;2023-02-17T10:22:22;45.20;;;30.17;;
18612;SDS011;9436;52.152;21.032;2023-02-17T10:24:50;43.03;;;29.97;;
18612;SDS011;9436;52.152;21.032;2023-02-17T10:27:21;39.07;;;28.83;;
18612;SDS011;9436;52.152;21.032;2023-02-17T10:29:58;47.03;;;30.70;;
18612;SDS011;9436;52.152;21.032;2023-02-17T10:32:35;42.10;;;29.87;;
18612;SDS011;9436;52.152;21.032;2023-02-17T10:35:13;44.83;;;30.77;;
18612;SDS011;9436;52.152;21.032;2023-02-17T10:37:45;45.27;;;31.07;;
18612;SDS011;9436;52.152;21.032;2023-02-17T10:40:18;46.27;;;31.00;;
18612;SDS011;9436;52.152;21.032;2023-02-17T10:42:48;44.60;;;31.40;;
18612;SDS011;9436;52.152;21.032;2023-02-17T10:45:20;45.27;;;30.73;;
18612;SDS011;9436;52.152;21.032;2023-02-17T10:47:55;43.57;;;30.27;;
18612;SDS011;9436;52.152;21.032;2023-02-17T10:50:27;45.10;;;30.67;;
18612;SDS011;9436;52.152;21.032;2023-02-17T10:52:55;44.37;;;30.50;;
18612;SDS011;9436;52.152;21.032;2023-02-17T10:55:24;46.63;;;31.10;;
18612;SDS011;9436;52.152;21.032;2023-02-17T10:57:59;46.23;;;31.20;;
18612;SDS011;9436;52.152;21.032;2023-02-17T11:00:31;45.00;;;31.47;;
18612;SDS011;9436;52.152;21.032;2023-02-17T11:02:58;42.87;;;30.00;;
18612;SDS011;9436;52.152;21.032;2023-02-17T11:05:26;41.27;;;30.37;;
18612;SDS011;9436;52.152;21.032;2023-02-17T11:07:58;41.47;;;29.63;;
18612;SDS011;9436;52.152;21.032;2023-02-17T11:10:28;42.23;;;29.97;;
18612;SDS011;9436;52.152;21.032;2023-02-17T11:12:57;44.40;;;30.47;;
18612;SDS011;9436;52.152;21.032;2023-02-17T11:15:28;42.40;;;29.73;;
18612;SDS011;9436;52.152;21.032;2023-02-17T11:17:58;41.23;;;29.17;;
18612;SDS011;9436;52.152;21.032;2023-02-17T11:20:34;45.00;;;31.13;;
18612;SDS011;9436;52.152;21.032;2023-02-17T11:23:05;42.00;;;30.27;;
18612;SDS011;9436;52.152;21.032;2023-02-17T11:25:54;46.00;;;30.97;;
18612;SDS011;9436;52.152;21.032;2023-02-17T11:28:23;46.07;;;31.53;;
18612;SDS011;9436;52.152;21.032;2023-02-17T11:30:51;45.07;;;30.93;;
18612;SDS011;9436;52.152;21.032;2023-02-17T11:33:21;41.97;;;30.97;;
18612;SDS011;9436;52.152;21.032;2023-02-17T11:35:53;45.13;;;31.70;;
18612;SDS011;9436;52.152;21.032;2023-02-17T11:38:24;46.70;;;32.43;;
18612;SDS011;9436;52.152;21.032;2023-02-17T11:40:53;45.37;;;32.13;;
18612;SDS011;9436;52.152;21.032;2023-02-17T11:43:22;47.50;;;31.67;;
18612;SDS011;9436;52.152;21.032;2023-02-17T11:45:53;42.83;;;31.23;;
18612;SDS011;9436;52.152;21.032;2023-02-17T11:51:30;42.53;;;29.00;;
18612;SDS011;9436;52.152;21.032;2023-02-17T11:54:09;40.70;;;29.73;;
18612;SDS011;9436;52.152;21.032;2023-02-17T11:56:46;44.10;;;30.93;;
18612;SDS011;9436;52.152;21.032;2023-02-17T11:59:28;40.10;;;29.07;;
18612;SDS011;9436;52.152;21.032;2023-02-17T12:02:12;44.03;;;30.30;;
18612;SDS011;9436;52.152;21.032;2023-02-17T12:04:47;42.20;;;29.30;;
18612;SDS011;9436;52.152;21.032;2023-02-17T12:07:35;40.57;;;28.77;;
18612;SDS011;9436;52.152;21.032;2023-02-17T12:10:18;40.33;;;29.00;;
18612;SDS011;9436;52.152;21.032;2023-02-17T12:12:54;41.40;;;28.20;;
18612;SDS011;9436;52.152;21.032;2023-02-17T12:15:30;37.60;;;27.97;;
18612;SDS011;9436;52.152;21.032;2023-02-17T12:18:09;39.00;;;29.10;;
18612;SDS011;9436;52.152;21.032;2023-02-17T12:20:49;41.83;;;29.53;;
18612;SDS011;9436;52.152;21.032;2023-02-17T12:23:28;42.87;;;30.00;;
18612;SDS011;9436;52.152;21.032;2023-02-17T12:26:12;46.13;;;32.83;;
18612;SDS011;9436;52.152;21.032;2023-02-17T12:28:55;51.07;;;35.40;;
18612;SDS011;9436;52.152;21.032;2023-02-17T12:31:36;41.70;;;30.03;;
18612;SDS011;9436;52.152;21.032;2023-02-17T12:34:12;42.80;;;31.40;;
18612;SDS011;9436;52.152;21.032;2023-02-17T12:36:45;44.13;;;30.00;;
18612;SDS011;9436;52.152;21.032;2023-02-17T12:39:15;41.83;;;29.63;;
18612;SDS011;9436;52.152;21.032;2023-02-17T12:41:50;41.80;;;29.63;;
18612;SDS011;9436;52.152;21.032;2023-02-17T12:44:21;42.03;;;29.80;;
18612;SDS011;9436;52.152;21.032;2023-02-17T12:46:54;39.70;;;28.00;;
18612;SDS011;9436;52.152;21.032;2023-02-17T12:49:26;39.30;;;28.70;;
18612;SDS011;9436;52.152;21.032;2023-02-17T12:52:03;36.00;;;26.07;;
18612;SDS011;9436;52.152;21.032;2023-02-17T12:54:35;37.33;;;27.37;;
18612;SDS011;9436;52.152;21.032;2023-02-17T12:57:12;35.87;;;27.30;;
18612;SDS011;9436;52.152;21.032;2023-02-17T12:59:42;35.23;;;26.17;;
18612;SDS011;9436;52.152;21.032;2023-02-17T13:02:12;33.00;;;24.83;;
18612;SDS011;9436;52.152;21.032;2023-02-17T13:04:41;33.80;;;25.20;;
18612;SDS011;9436;52.152;21.032;2023-02-17T13:10:05;32.27;;;25.10;;
18612;SDS011;9436;52.152;21.032;2023-02-17T13:12:36;31.13;;;23.73;;
18612;SDS011;9436;52.152;21.032;2023-02-17T13:15:09;30.73;;;24.20;;
18612;SDS011;9436;52.152;21.032;2023-02-17T13:17:53;27.83;;;20.83;;
18612;SDS011;9436;52.152;21.032;2023-02-17T13:20:37;31.43;;;22.53;;
18612;SDS011;9436;52.152;21.032;2023-02-17T13:23:10;29.20;;;21.83;;
18612;SDS011;9436;52.152;21.032;2023-02-17T13:25:39;31.30;;;22.10;;
18612;SDS011;9436;52.152;21.032;2023-02-17T13:28:18;27.03;;;21.20;;
18612;SDS011;9436;52.152;21.032;2023-02-17T13:31:11;28.17;;;19.97;;
18612;SDS011;9436;52.152;21.032;2023-02-17T13:33:44;26.63;;;20.13;;
18612;SDS011;9436;52.152;21.032;2023-02-17T13:36:15;28.20;;;20.90;;
18612;SDS011;9436;52.152;21.032;2023-02-17T13:41:53;25.97;;;19.67;;
18612;SDS011;9436;52.152;21.032;2023-02-17T13:44:27;28.33;;;21.03;;
18612;SDS011;9436;52.152;21.032;2023-02-17T13:46:56;26.40;;;20.57;;
18612;SDS011;9436;52.152;21.032;2023-02-17T13:49:26;25.50;;;19.70;;
18612;SDS011;9436;52.152;21.032;2023-02-17T13:52:05;24.77;;;18.67;;
18612;SDS011;9436;52.152;21.032;2023-02-17T13:54:49;23.87;;;20.00;;
18612;SDS011;9436;52.152;21.032;2023-02-17T13:57:24;25.70;;;19.07;;
18612;SDS011;9436;52.152;21.032;2023-02-17T14:00:05;26.02;;;19.48;;
18612;SDS011;9436;52.152;21.032;2023-02-17T14:02:36;24.53;;;19.50;;
18612;SDS011;9436;52.152;21.032;2023-02-17T14:05:08;25.93;;;19.30;;
18612;SDS011;9436;52.152;21.032;2023-02-17T14:07:42;26.80;;;19.30;;
18612;SDS011;9436;52.152;21.032;2023-02-17T14:12:47;28.27;;;19.53;;
18612;SDS011;9436;52.152;21.032;2023-02-17T14:15:17;27.37;;;19.57;;
18612;SDS011;9436;52.152;21.032;2023-02-17T14:17:46;24.53;;;17.97;;
18612;SDS011;9436;52.152;21.032;2023-02-17T14:20:23;26.73;;;19.40;;
18612;SDS011;9436;52.152;21.032;2023-02-17T14:22:58;27.30;;;19.43;;
18612;SDS011;9436;52.152;21.032;2023-02-17T14:25:30;22.07;;;17.80;;
18612;SDS011;9436;52.152;21.032;2023-02-17T14:27:59;24.80;;;18.87;;
18612;SDS011;9436;52.152;21.032;2023-02-17T14:30:28;25.70;;;19.43;;
18612;SDS011;9436;52.152;21.032;2023-02-17T14:33:00;26.03;;;18.47;;
18612;SDS011;9436;52.152;21.032;2023-02-17T14:35:29;22.93;;;18.63;;
18612;SDS011;9436;52.152;21.032;2023-02-17T14:38:05;24.23;;;18.27;;
18612;SDS011;9436;52.152;21.032;2023-02-17T14:40:33;24.97;;;18.83;;
18612;SDS011;9436;52.152;21.032;2023-02-17T14:43:00;27.43;;;19.23;;
18612;SDS011;9436;52.152;21.032;2023-02-17T14:45:28;23.67;;;18.80;;
18612;SDS011;9436;52.152;21.032;2023-02-17T14:47:56;22.70;;;18.57;;
18612;SDS011;9436;52.152;21.032;2023-02-17T14:50:23;27.27;;;18.13;;
18612;SDS011;9436;52.152;21.032;2023-02-17T14:52:50;23.17;;;18.47;;
18612;SDS011;9436;52.152;21.032;2023-02-17T14:55:21;24.13;;;18.93;;
18612;SDS011;9436;52.152;21.032;2023-02-17T14:57:54;22.50;;;18.37;;
18612;SDS011;9436;52.152;21.032;2023-02-17T15:00:21;25.80;;;19.30;;
18612;SDS011;9436;52.152;21.032;2023-02-17T15:02:50;18.03;;;14.63;;
18612;SDS011;9436;52.152;21.032;2023-02-17T15:05:17;25.90;;;20.67;;